Terminal Aerodrome Forecast
Issued by NWS Paducah, KY

Home | Current Version | Previous Version | Text Only | Print | Product List | Glossary On
Versions: 1 2 3 4 5 6 7 8 9 10 11 12 13 14 15 16 17 18
141
FTUS43 KPAH 121927 AAB
TAFPAH
TAF AMD
KPAH 121927Z 1219/1318 33010G19KT P6SM SCT025 BKN040
      TEMPO 1219/1223 BKN025
     FM130300 36010G18KT P6SM SCT030
     FM131500 02008KT P6SM SKC=

USA.gov is the U.S. government's official web portal to all federal, state and local government web resources and services.